Time;durP1;ratioP1;P1;durP2;ratioP2;P2;SDS_P1;SDS_P2;PMS_P1;PMS_P2;Temp;Humidity;BMP_temperature;BMP_pressure;BME280_temperature;BME280_humidity;BME280_pressure;Samples;Min_cycle;Max_cycle;Signal;HPM_P1;HPM_P2
2022/03/12 00:02:32;;;;;;;31.10;14.93;;;;;;;5.71;44.31;100536.06;20979254;28;20079;-63
2022/03/12 00:12:36;;;;;;;27.25;12.32;;;;;;;5.70;45.02;100548.19;20978778;28;20106;-63
2022/03/12 00:22:49;;;;;;;27.83;13.35;;;;;;;5.57;46.10;100557.63;20976978;28;20048;-64
2022/03/12 00:32:52;;;;;;;33.08;15.27;;;;;;;5.53;46.47;100567.97;20975670;28;20048;-65
2022/03/12 00:42:54;;;;;;;35.70;16.20;;;;;;;5.34;50.05;100573.00;20976165;28;20044;-64
2022/03/12 00:52:55;;;;;;;35.60;15.63;;;;;;;5.24;50.05;100566.00;20975338;28;20478;-64
2022/03/12 01:02:56;;;;;;;28.88;13.88;;;;;;;5.26;48.84;100574.66;20973641;28;20040;-64
2022/03/12 01:12:58;;;;;;;27.13;14.02;;;;;;;5.19;50.29;100583.28;20974438;28;20136;-64
2022/03/12 01:23:00;;;;;;;30.90;15.68;;;;;;;5.15;49.13;100591.88;20973793;28;20047;-64
2022/03/12 01:33:01;;;;;;;21.33;11.30;;;;;;;5.10;48.27;100581.47;20972214;28;20053;-64
2022/03/12 01:43:04;;;;;;;21.23;11.70;;;;;;;5.00;49.55;100591.75;20971898;28;20550;-64
2022/03/12 01:53:09;;;;;;;20.35;10.32;;;;;;;4.98;49.61;100596.03;20970924;28;20121;-64
2022/03/12 02:03:12;;;;;;;21.70;10.90;;;;;;;4.84;50.25;100607.16;20970401;28;20045;-64
2022/03/12 02:13:14;;;;;;;18.85;9.80;;;;;;;4.82;49.25;100613.16;20970389;28;20113;-64
2022/03/12 02:23:16;;;;;;;20.70;10.38;;;;;;;4.69;48.74;100609.56;20971430;28;20134;-64
2022/03/12 02:33:28;;;;;;;23.08;10.82;;;;;;;4.47;50.37;100616.22;20969582;28;20104;-64
2022/03/12 02:43:29;;;;;;;21.05;10.88;;;;;;;4.36;50.77;100623.88;20969269;28;20044;-64
2022/03/12 02:53:31;;;;;;;20.70;10.20;;;;;;;4.31;51.58;100628.13;20979411;28;20087;-65
2022/03/12 03:03:35;;;;;;;22.42;10.50;;;;;;;4.42;50.46;100623.06;20983233;28;20448;-64
2022/03/12 03:13:41;;;;;;;19.80;10.27;;;;;;;4.36;50.94;100641.16;20983378;28;20056;-64
2022/03/12 03:23:46;;;;;;;21.55;11.48;;;;;;;4.30;49.75;100641.91;20983275;28;20048;-64
2022/03/12 03:33:48;;;;;;;20.73;10.43;;;;;;;4.27;50.78;100661.75;20980576;28;20041;-64
2022/03/12 03:43:51;;;;;;;27.50;11.27;;;;;;;4.47;49.52;100668.06;20980927;28;20487;-64
2022/03/12 03:53:52;;;;;;;18.05;9.52;;;;;;;4.47;48.93;100680.19;20979772;28;20045;-64
2022/03/12 04:03:54;;;;;;;18.67;9.98;;;;;;;4.51;49.15;100689.75;20978936;28;20048;-65
2022/03/12 04:13:58;;;;;;;20.60;10.07;;;;;;;4.46;49.15;100697.47;20978664;28;20044;-65
2022/03/12 04:23:59;;;;;;;19.95;10.18;;;;;;;4.52;49.91;100700.13;20977984;28;20111;-64
2022/03/12 04:34:01;;;;;;;18.70;9.77;;;;;;;4.55;49.93;100707.06;20976539;28;20044;-64
2022/03/12 04:44:04;;;;;;;19.83;10.02;;;;;;;4.65;49.57;100714.13;20976315;28;20052;-64
2022/03/12 04:54:05;;;;;;;23.08;10.50;;;;;;;4.81;49.13;100728.16;20975870;28;20135;-64
2022/03/12 05:04:07;;;;;;;19.77;10.35;;;;;;;4.62;52.66;100755.56;20973540;28;20048;-64
2022/03/12 05:14:10;;;;;;;19.67;9.60;;;;;;;4.64;50.39;100733.97;20974462;28;21017;-64
2022/03/12 05:24:14;;;;;;;19.25;10.30;;;;;;;4.57;51.29;100736.50;20973510;28;20048;-64
2022/03/12 05:34:15;;;;;;;19.95;9.45;;;;;;;4.66;49.86;100726.25;20972570;28;20123;-64
2022/03/12 05:44:17;;;;;;;18.85;10.00;;;;;;;4.54;48.83;100739.03;20972325;28;20666;-64
2022/03/12 05:54:18;;;;;;;16.45;8.70;;;;;;;4.48;51.10;100757.97;20971988;28;20181;-64
2022/03/12 06:04:25;;;;;;;19.10;10.48;;;;;;;4.66;49.16;100769.47;20971247;28;20044;-65
2022/03/12 06:14:28;;;;;;;20.30;9.98;;;;;;;4.71;49.08;100766.09;20968619;28;20049;-64
2022/03/12 06:24:29;;;;;;;15.95;9.25;;;;;;;4.72;49.10;100765.22;20975327;28;20589;-64
2022/03/12 06:34:32;;;;;;;19.33;10.00;;;;;;;4.76;48.92;100785.19;20986056;28;20048;-65
2022/03/12 06:44:36;;;;;;;21.48;12.00;;;;;;;4.85;48.59;100777.53;20986017;28;20412;-64
2022/03/12 06:54:38;;;;;;;18.63;9.23;;;;;;;4.92;48.86;100782.78;20984512;28;20409;-64
2022/03/12 07:04:40;;;;;;;24.20;9.82;;;;;;;5.11;46.52;100787.38;20983379;28;20048;-65
2022/03/12 07:14:41;;;;;;;21.88;10.68;;;;;;;5.17;47.38;100783.97;20983218;28;20049;-64
2022/03/12 07:24:43;;;;;;;21.52;10.48;;;;;;;5.38;47.38;100784.25;20981974;28;20115;-64
2022/03/12 07:34:45;;;;;;;19.38;8.98;;;;;;;5.49;47.43;100784.34;20981191;28;20567;-64
2022/03/12 07:44:47;;;;;;;15.25;8.55;;;;;;;5.83;45.99;100791.63;20977403;28;20463;-64
2022/03/12 07:54:48;;;;;;;18.35;9.95;;;;;;;6.01;45.32;100790.13;20979684;28;20118;-64
2022/03/12 08:04:50;;;;;;;19.65;9.82;;;;;;;6.14;44.88;100792.84;20972263;28;20487;-64
2022/03/12 08:14:51;;;;;;;21.17;10.00;;;;;;;5.99;45.47;100791.81;20972213;28;20101;-65
2022/03/12 08:24:54;;;;;;;19.90;9.60;;;;;;;6.00;45.25;100790.97;20970570;28;20494;-64
2022/03/12 08:34:58;;;;;;;20.55;10.32;;;;;;;6.15;44.09;100793.69;20969410;28;20520;-66
2022/03/12 08:45:00;;;;;;;22.30;9.30;;;;;;;6.68;44.07;100814.91;20969094;28;20547;-66
2022/03/12 08:55:02;;;;;;;19.90;9.63;;;;;;;7.00;42.88;100814.25;20969932;28;20098;-67
2022/03/12 09:05:07;;;;;;;18.70;9.70;;;;;;;7.27;42.33;100808.28;20970846;28;20117;-66
2022/03/12 09:15:09;;;;;;;20.73;10.13;;;;;;;7.54;41.71;100822.31;20968909;28;20422;-64
2022/03/12 09:25:12;;;;;;;25.98;11.40;;;;;;;8.05;41.33;100810.22;20967443;28;20080;-65
2022/03/12 09:35:14;;;;;;;18.90;11.27;;;;;;;8.39;40.30;100795.53;20966567;28;20040;-65
2022/03/12 09:45:15;;;;;;;21.60;11.18;;;;;;;8.83;40.33;100784.16;20965925;28;20119;-66
2022/03/12 09:55:18;;;;;;;21.25;11.05;;;;;;;8.82;40.18;100785.88;20966786;28;20048;-65
2022/03/12 10:05:19;;;;;;;23.25;11.18;;;;;;;9.39;39.52;100786.56;20965689;28;20056;-66
2022/03/12 10:15:21;;;;;;;22.77;11.40;;;;;;;10.05;40.19;100759.13;20962462;28;20486;-65
2022/03/12 10:25:23;;;;;;;20.75;11.55;;;;;;;10.51;37.38;100750.00;20965783;28;20485;-64
2022/03/12 10:35:25;;;;;;;26.20;12.23;;;;;;;10.73;38.43;100741.91;20960476;28;20087;-65
2022/03/12 10:45:39;;;;;;;20.50;12.52;;;;;;;11.25;38.20;100728.19;20964209;28;20045;-63
2022/03/12 10:55:46;;;;;;;18.00;11.60;;;;;;;11.37;37.79;100724.56;20963156;28;20563;-65
2022/03/12 11:05:50;;;;;;;24.65;11.13;;;;;;;11.84;38.77;100716.03;20962767;28;20099;-64
2022/03/12 11:16:22;;;;;;;19.05;11.82;;;;;;;11.91;37.60;100715.03;20974958;28;20043;-64
2022/03/12 11:26:24;;;;;;;23.27;12.85;;;;;;;12.13;37.67;100709.44;20970332;28;20048;-64
2022/03/12 11:36:27;;;;;;;19.67;11.98;;;;;;;12.42;37.37;100701.03;20977079;28;20048;-64
2022/03/12 11:46:28;;;;;;;22.77;12.60;;;;;;;12.84;38.24;100692.31;20974151;28;20528;-64
2022/03/12 11:56:32;;;;;;;21.02;12.10;;;;;;;12.96;38.38;100667.53;20975558;28;20045;-65
2022/03/12 12:06:36;;;;;;;22.25;12.27;;;;;;;13.35;37.87;100654.44;20975049;28;20048;-64
2022/03/12 12:16:38;;;;;;;18.23;11.73;;;;;;;13.59;37.65;100639.84;20973866;28;20052;-64
2022/03/12 12:27:09;;;;;;;18.05;11.60;;;;;;;13.55;38.95;100639.03;20971983;28;20060;-64
2022/03/12 12:37:10;;;;;;;23.80;13.82;;;;;;;13.65;36.68;100625.66;20955365;28;20048;-64
2022/03/12 12:47:18;;;;;;;20.27;12.90;;;;;;;13.48;37.80;100613.81;20971896;28;20040;-64
2022/03/12 12:57:37;;;;;;;14.88;9.55;;;;;;;13.54;40.51;100608.38;20967774;28;20052;-65
2022/03/12 13:08:05;;;;;;;16.75;10.77;;;;;;;13.63;38.97;100590.66;20967991;28;20635;-64
2022/03/12 13:18:19;;;;;;;21.33;11.30;;;;;;;13.88;39.65;100575.94;20965095;28;20040;-64
2022/03/12 13:28:41;;;;;;;16.58;10.68;;;;;;;13.90;39.19;100579.41;20968706;28;20113;-63
2022/03/12 13:38:43;;;;;;;16.40;9.82;;;;;;;13.93;39.31;100568.78;20966457;28;20040;-64
2022/03/12 13:48:57;;;;;;;17.70;10.10;;;;;;;13.82;39.15;100565.59;20968098;28;20467;-64
2022/03/12 13:59:03;;;;;;;16.05;10.10;;;;;;;13.93;38.99;100568.78;20964071;28;20106;-64
2022/03/12 14:09:10;;;;;;;17.92;10.52;;;;;;;13.92;39.33;100561.81;20966097;28;20639;-62
2022/03/12 14:19:20;;;;;;;18.17;9.80;;;;;;;13.82;39.54;100557.69;20965752;28;20036;-62
2022/03/12 14:29:34;;;;;;;15.70;9.10;;;;;;;13.83;40.97;100543.63;20962406;28;20401;-63
2022/03/12 14:39:37;;;;;;;16.90;10.25;;;;;;;13.99;39.70;100541.44;20962384;28;20056;-63
2022/03/12 14:49:40;;;;;;;14.77;9.50;;;;;;;13.82;40.02;100534.88;20974685;28;20048;-64
2022/03/12 14:59:43;;;;;;;15.80;9.85;;;;;;;13.76;40.69;100539.44;20979597;28;20044;-63
2022/03/12 15:10:00;;;;;;;16.52;9.40;;;;;;;13.62;40.75;100528.41;20978424;28;20052;-64
2022/03/12 15:20:07;;;;;;;15.40;9.45;;;;;;;13.59;40.75;100531.97;20978710;28;20437;-64
2022/03/12 15:30:12;;;;;;;16.17;9.52;;;;;;;13.62;40.83;100531.06;20978167;28;20131;-64
2022/03/12 15:40:15;;;;;;;14.30;8.48;;;;;;;13.52;41.12;100510.25;20976306;28;20044;-65
2022/03/12 15:50:21;;;;;;;14.40;8.48;;;;;;;13.63;41.88;100506.47;20972616;28;20044;-65
2022/03/12 16:00:39;;;;;;;11.75;7.68;;;;;;;13.38;42.57;100507.09;20972301;28;20075;-63
2022/03/12 16:10:41;;;;;;;16.42;9.20;;;;;;;13.35;42.28;100496.66;20973863;28;20068;-64
2022/03/12 16:20:43;;;;;;;15.80;9.23;;;;;;;13.24;43.11;100493.44;20975828;28;20076;-65
2022/03/12 16:30:45;;;;;;;14.00;8.00;;;;;;;13.15;43.19;100478.72;20974852;28;20044;-64
2022/03/12 16:40:47;;;;;;;14.50;7.53;;;;;;;13.02;43.46;100478.16;20973313;28;20094;-65
2022/03/12 16:50:48;;;;;;;13.15;7.28;;;;;;;12.79;44.21;100486.59;20970313;28;20041;-64
2022/03/12 17:00:50;;;;;;;20.73;9.80;;;;;;;12.56;44.97;100479.25;20968220;28;20067;-64
2022/03/12 17:10:51;;;;;;;20.33;9.65;;;;;;;12.16;46.68;100486.25;20964289;28;20088;-64
2022/03/12 17:20:54;;;;;;;17.58;10.18;;;;;;;11.84;47.44;100493.03;20968941;28;20090;-64
2022/03/12 17:30:56;;;;;;;20.25;12.02;;;;;;;11.51;48.30;100497.09;20969251;28;20045;-64
2022/03/12 17:40:58;;;;;;;27.65;14.35;;;;;;;11.25;48.38;100487.91;20968126;28;20071;-64
2022/03/12 17:50:59;;;;;;;23.35;12.65;;;;;;;11.20;47.92;100488.91;20961993;28;20389;-65
2022/03/12 18:01:01;;;;;;;22.15;12.20;;;;;;;11.04;48.51;100485.66;20944593;28;20932;-64
2022/03/12 18:11:03;;;;;;;18.60;10.85;;;;;;;10.94;48.07;100492.81;20945597;28;20056;-65
2022/03/12 18:21:05;;;;;;;24.13;11.27;;;;;;;10.69;49.15;100494.09;20950648;28;20126;-65
2022/03/12 18:31:12;;;;;;;19.48;11.55;;;;;;;10.41;48.79;100485.75;20960833;28;20064;-64
2022/03/12 18:41:13;;;;;;;18.25;10.70;;;;;;;10.42;47.47;100490.97;20959477;28;20052;-65
2022/03/12 18:51:17;;;;;;;17.33;10.50;;;;;;;9.96;48.55;100491.50;20959975;28;20053;-65
2022/03/12 19:01:18;;;;;;;18.90;10.93;;;;;;;9.73;49.85;100491.78;20959178;28;20354;-65
2022/03/12 19:11:20;;;;;;;24.52;13.20;;;;;;;9.52;49.66;100500.69;20956849;28;20555;-66
2022/03/12 19:21:23;;;;;;;18.90;10.95;;;;;;;9.32;50.59;100502.63;20957349;28;20047;-65
2022/03/12 19:31:24;;;;;;;26.95;14.10;;;;;;;9.10;49.99;100503.69;20955423;28;20041;-65
2022/03/12 19:41:26;;;;;;;25.75;15.07;;;;;;;8.86;50.93;100510.84;20956538;28;20048;-66
2022/03/12 19:51:27;;;;;;;21.75;12.98;;;;;;;8.66;51.34;100510.09;20954017;28;20122;-66
2022/03/12 20:01:29;;;;;;;24.27;12.70;;;;;;;8.38;52.19;100512.84;20952139;28;20091;-66
2022/03/12 20:11:31;;;;;;;23.05;13.00;;;;;;;8.16;52.02;100513.81;20953087;28;20051;-65
2022/03/12 20:21:35;;;;;;;28.70;15.63;;;;;;;7.83;53.65;100520.00;20951621;28;20571;-65
2022/03/12 20:31:37;;;;;;;37.15;20.42;;;;;;;7.71;51.54;100518.28;20948032;28;20135;-65
2022/03/12 20:41:40;;;;;;;23.83;13.57;;;;;;;7.59;49.63;100513.97;20948356;28;20167;-66
2022/03/12 20:51:41;;;;;;;18.95;10.98;;;;;;;7.34;50.96;100513.13;20961013;28;20144;-65
2022/03/12 21:01:47;;;;;;;21.15;11.48;;;;;;;6.83;54.20;100509.63;20969250;28;20044;-65
2022/03/12 21:11:49;;;;;;;23.42;12.82;;;;;;;6.79;51.67;100501.81;20970178;28;20052;-65
2022/03/12 21:21:53;;;;;;;21.83;11.50;;;;;;;7.02;46.53;100487.09;20969355;28;20101;-66
2022/03/12 21:31:55;;;;;;;21.30;10.97;;;;;;;6.86;46.15;100494.03;20968465;28;20467;-65
2022/03/12 21:41:58;;;;;;;19.33;11.32;;;;;;;6.62;47.01;100486.19;20967445;28;20040;-65
2022/03/12 21:51:59;;;;;;;22.77;12.00;;;;;;;6.40;48.31;100478.34;20967510;28;20520;-66
2022/03/12 22:02:09;;;;;;;23.30;11.90;;;;;;;6.41;45.36;100463.59;20965952;28;20044;-65
2022/03/12 22:12:11;;;;;;;29.17;15.90;;;;;;;6.42;45.53;100444.56;20966220;28;20559;-65
2022/03/12 22:22:13;;;;;;;24.20;12.27;;;;;;;6.57;43.57;100435.91;20964351;28;20490;-65
2022/03/12 22:32:16;;;;;;;27.60;12.95;;;;;;;6.46;43.51;100425.47;20965636;28;20075;-65
2022/03/12 22:42:17;;;;;;;22.85;12.40;;;;;;;6.37;43.14;100430.66;20964976;28;20040;-65
2022/03/12 22:52:20;;;;;;;25.55;13.00;;;;;;;6.35;43.41;100421.97;20965050;28;20524;-66
2022/03/12 23:02:23;;;;;;;21.58;11.85;;;;;;;6.14;43.81;100420.22;20964398;28;20456;-66
2022/03/12 23:12:24;;;;;;;27.15;14.00;;;;;;;5.85;44.68;100410.56;20974838;28;20468;-66
2022/03/12 23:22:27;;;;;;;25.13;13.20;;;;;;;5.63;45.66;100413.94;20981324;28;20052;-66
2022/03/12 23:32:29;;;;;;;22.88;12.35;;;;;;;5.62;44.85;100399.22;20977187;28;20283;-66
2022/03/12 23:42:34;;;;;;;22.02;12.73;;;;;;;5.48;45.20;100393.94;20980684;28;20076;-65
2022/03/12 23:52:37;;;;;;;28.40;13.02;;;;;;;5.40;45.63;100396.50;20979084;28;20767;-66
